sensor_id;sensor_type;location;lat;lon;timestamp;P1;durP1;ratioP1;P2;durP2;ratioP2
59161;SDS011;44942;48.936;8.260;2023-08-06T00:02:52;3.03;;;2.13;;
59161;SDS011;44942;48.936;8.260;2023-08-06T00:07:52;1.92;;;1.80;;
59161;SDS011;44942;48.936;8.260;2023-08-06T00:12:53;2.63;;;1.92;;
59161;SDS011;44942;48.936;8.260;2023-08-06T00:17:54;2.38;;;2.08;;
59161;SDS011;44942;48.936;8.260;2023-08-06T00:22:54;2.13;;;1.90;;
59161;SDS011;44942;48.936;8.260;2023-08-06T00:27:55;2.15;;;1.95;;
59161;SDS011;44942;48.936;8.260;2023-08-06T00:32:56;2.05;;;1.85;;
59161;SDS011;44942;48.936;8.260;2023-08-06T00:37:57;2.35;;;1.90;;
59161;SDS011;44942;48.936;8.260;2023-08-06T00:42:57;2.65;;;2.25;;
59161;SDS011;44942;48.936;8.260;2023-08-06T00:47:58;2.70;;;2.03;;
59161;SDS011;44942;48.936;8.260;2023-08-06T00:53:03;3.03;;;1.80;;
59161;SDS011;44942;48.936;8.260;2023-08-06T00:58:03;2.13;;;1.92;;
59161;SDS011;44942;48.936;8.260;2023-08-06T01:03:05;2.33;;;2.10;;
59161;SDS011;44942;48.936;8.260;2023-08-06T01:08:25;2.10;;;1.90;;
59161;SDS011;44942;48.936;8.260;2023-08-06T01:13:54;2.20;;;2.00;;
59161;SDS011;44942;48.936;8.260;2023-08-06T01:19:17;2.58;;;1.80;;
59161;SDS011;44942;48.936;8.260;2023-08-06T01:24:18;2.47;;;1.80;;
59161;SDS011;44942;48.936;8.260;2023-08-06T01:29:23;2.10;;;1.90;;
59161;SDS011;44942;48.936;8.260;2023-08-06T01:34:31;2.03;;;1.92;;
59161;SDS011;44942;48.936;8.260;2023-08-06T01:39:34;1.90;;;1.80;;
59161;SDS011;44942;48.936;8.260;2023-08-06T01:44:34;2.17;;;1.75;;
59161;SDS011;44942;48.936;8.260;2023-08-06T01:49:35;2.42;;;1.80;;
59161;SDS011;44942;48.936;8.260;2023-08-06T01:54:36;2.00;;;1.77;;
59161;SDS011;44942;48.936;8.260;2023-08-06T01:59:36;1.80;;;1.70;;
59161;SDS011;44942;48.936;8.260;2023-08-06T02:04:37;1.73;;;1.63;;
59161;SDS011;44942;48.936;8.260;2023-08-06T02:09:37;1.70;;;1.60;;
59161;SDS011;44942;48.936;8.260;2023-08-06T02:14:38;2.27;;;1.80;;
59161;SDS011;44942;48.936;8.260;2023-08-06T02:19:39;2.13;;;1.77;;
59161;SDS011;44942;48.936;8.260;2023-08-06T02:24:39;2.00;;;1.80;;
59161;SDS011;44942;48.936;8.260;2023-08-06T02:29:40;2.10;;;1.70;;
59161;SDS011;44942;48.936;8.260;2023-08-06T02:39:42;1.70;;;1.60;;
59161;SDS011;44942;48.936;8.260;2023-08-06T02:44:43;2.08;;;1.58;;
59161;SDS011;44942;48.936;8.260;2023-08-06T02:49:43;4.93;;;1.77;;
59161;SDS011;44942;48.936;8.260;2023-08-06T02:54:44;2.53;;;2.10;;
59161;SDS011;44942;48.936;8.260;2023-08-06T02:59:44;1.97;;;1.73;;
59161;SDS011;44942;48.936;8.260;2023-08-06T03:04:45;2.27;;;1.80;;
59161;SDS011;44942;48.936;8.260;2023-08-06T03:09:45;1.90;;;1.70;;
59161;SDS011;44942;48.936;8.260;2023-08-06T03:14:46;2.33;;;1.90;;
59161;SDS011;44942;48.936;8.260;2023-08-06T03:19:47;1.85;;;1.75;;
59161;SDS011;44942;48.936;8.260;2023-08-06T03:24:49;2.30;;;1.60;;
59161;SDS011;44942;48.936;8.260;2023-08-06T03:29:51;2.38;;;1.65;;
59161;SDS011;44942;48.936;8.260;2023-08-06T03:34:51;2.53;;;1.60;;
59161;SDS011;44942;48.936;8.260;2023-08-06T03:39:52;3.53;;;1.63;;
59161;SDS011;44942;48.936;8.260;2023-08-06T03:44:52;2.40;;;1.90;;
59161;SDS011;44942;48.936;8.260;2023-08-06T03:49:53;2.92;;;1.70;;
59161;SDS011;44942;48.936;8.260;2023-08-06T03:54:53;2.37;;;1.93;;
59161;SDS011;44942;48.936;8.260;2023-08-06T03:59:54;2.10;;;1.50;;
59161;SDS011;44942;48.936;8.260;2023-08-06T04:04:54;1.95;;;1.40;;
59161;SDS011;44942;48.936;8.260;2023-08-06T04:09:59;2.30;;;1.50;;
59161;SDS011;44942;48.936;8.260;2023-08-06T04:15:01;1.58;;;1.48;;
59161;SDS011;44942;48.936;8.260;2023-08-06T04:20:02;2.97;;;1.50;;
59161;SDS011;44942;48.936;8.260;2023-08-06T04:25:03;5.45;;;1.80;;
59161;SDS011;44942;48.936;8.260;2023-08-06T04:30:04;2.17;;;1.50;;
59161;SDS011;44942;48.936;8.260;2023-08-06T04:35:05;2.20;;;1.60;;
59161;SDS011;44942;48.936;8.260;2023-08-06T04:40:06;2.55;;;1.45;;
59161;SDS011;44942;48.936;8.260;2023-08-06T04:45:07;2.75;;;1.63;;
59161;SDS011;44942;48.936;8.260;2023-08-06T04:55:09;2.90;;;1.50;;
59161;SDS011;44942;48.936;8.260;2023-08-06T05:00:09;1.63;;;1.30;;
59161;SDS011;44942;48.936;8.260;2023-08-06T05:05:10;2.08;;;1.38;;
59161;SDS011;44942;48.936;8.260;2023-08-06T05:10:10;1.83;;;1.30;;
59161;SDS011;44942;48.936;8.260;2023-08-06T05:15:11;2.10;;;1.37;;
59161;SDS011;44942;48.936;8.260;2023-08-06T05:20:12;3.50;;;1.23;;
59161;SDS011;44942;48.936;8.260;2023-08-06T05:25:13;3.33;;;1.37;;
59161;SDS011;44942;48.936;8.260;2023-08-06T05:30:14;2.45;;;1.38;;
59161;SDS011;44942;48.936;8.260;2023-08-06T05:35:15;1.67;;;1.23;;
59161;SDS011;44942;48.936;8.260;2023-08-06T05:40:15;1.73;;;1.15;;
59161;SDS011;44942;48.936;8.260;2023-08-06T05:45:16;2.92;;;1.40;;
59161;SDS011;44942;48.936;8.260;2023-08-06T05:50:17;1.92;;;1.15;;
59161;SDS011;44942;48.936;8.260;2023-08-06T05:55:17;3.85;;;1.40;;
59161;SDS011;44942;48.936;8.260;2023-08-06T06:05:19;4.97;;;1.40;;
59161;SDS011;44942;48.936;8.260;2023-08-06T06:10:20;2.53;;;1.40;;
59161;SDS011;44942;48.936;8.260;2023-08-06T06:15:20;2.20;;;1.10;;
59161;SDS011;44942;48.936;8.260;2023-08-06T06:20:21;2.07;;;1.10;;
59161;SDS011;44942;48.936;8.260;2023-08-06T06:25:21;1.97;;;1.10;;
59161;SDS011;44942;48.936;8.260;2023-08-06T06:30:22;2.45;;;1.02;;
59161;SDS011;44942;48.936;8.260;2023-08-06T06:35:22;10.27;;;1.10;;
59161;SDS011;44942;48.936;8.260;2023-08-06T06:40:23;1.20;;;0.93;;
59161;SDS011;44942;48.936;8.260;2023-08-06T06:45:23;2.33;;;1.00;;
59161;SDS011;44942;48.936;8.260;2023-08-06T06:50:24;1.20;;;0.80;;
59161;SDS011;44942;48.936;8.260;2023-08-06T06:55:26;2.05;;;1.00;;
59161;SDS011;44942;48.936;8.260;2023-08-06T07:00:27;1.75;;;1.00;;
59161;SDS011;44942;48.936;8.260;2023-08-06T07:05:28;1.03;;;0.90;;
59161;SDS011;44942;48.936;8.260;2023-08-06T07:10:28;1.13;;;0.77;;
59161;SDS011;44942;48.936;8.260;2023-08-06T07:15:29;1.60;;;0.80;;
59161;SDS011;44942;48.936;8.260;2023-08-06T07:20:29;1.50;;;0.83;;
59161;SDS011;44942;48.936;8.260;2023-08-06T07:25:32;2.75;;;1.23;;
59161;SDS011;44942;48.936;8.260;2023-08-06T07:30:33;1.10;;;0.80;;
59161;SDS011;44942;48.936;8.260;2023-08-06T07:35:34;1.67;;;0.97;;
59161;SDS011;44942;48.936;8.260;2023-08-06T07:45:36;1.95;;;1.30;;
59161;SDS011;44942;48.936;8.260;2023-08-06T07:50:37;3.85;;;1.20;;
59161;SDS011;44942;48.936;8.260;2023-08-06T07:55:38;2.03;;;0.77;;
59161;SDS011;44942;48.936;8.260;2023-08-06T08:00:38;3.77;;;0.60;;
59161;SDS011;44942;48.936;8.260;2023-08-06T08:05:42;2.10;;;0.70;;
59161;SDS011;44942;48.936;8.260;2023-08-06T08:10:44;2.33;;;0.70;;
59161;SDS011;44942;48.936;8.260;2023-08-06T08:20:46;1.47;;;0.50;;
59161;SDS011;44942;48.936;8.260;2023-08-06T08:25:46;1.00;;;0.50;;
59161;SDS011;44942;48.936;8.260;2023-08-06T08:30:47;1.90;;;0.53;;
59161;SDS011;44942;48.936;8.260;2023-08-06T08:35:47;2.75;;;0.80;;
59161;SDS011;44942;48.936;8.260;2023-08-06T08:40:49;1.27;;;0.50;;
59161;SDS011;44942;48.936;8.260;2023-08-06T08:45:52;0.80;;;0.40;;
59161;SDS011;44942;48.936;8.260;2023-08-06T08:50:58;1.98;;;0.57;;
59161;SDS011;44942;48.936;8.260;2023-08-06T08:55:59;1.20;;;0.50;;
59161;SDS011;44942;48.936;8.260;2023-08-06T09:01:01;2.95;;;0.65;;
59161;SDS011;44942;48.936;8.260;2023-08-06T09:06:03;1.13;;;0.50;;
59161;SDS011;44942;48.936;8.260;2023-08-06T09:11:05;2.88;;;0.60;;
59161;SDS011;44942;48.936;8.260;2023-08-06T09:16:08;14.60;;;1.00;;
59161;SDS011;44942;48.936;8.260;2023-08-06T09:21:13;3.38;;;0.93;;
59161;SDS011;44942;48.936;8.260;2023-08-06T09:26:16;3.30;;;0.60;;
59161;SDS011;44942;48.936;8.260;2023-08-06T09:31:16;1.27;;;0.60;;
59161;SDS011;44942;48.936;8.260;2023-08-06T09:36:17;1.65;;;0.50;;
59161;SDS011;44942;48.936;8.260;2023-08-06T09:41:27;1.45;;;0.43;;
59161;SDS011;44942;48.936;8.260;2023-08-06T09:46:28;1.25;;;0.60;;
59161;SDS011;44942;48.936;8.260;2023-08-06T09:51:32;2.17;;;0.70;;
59161;SDS011;44942;48.936;8.260;2023-08-06T09:56:33;0.50;;;0.50;;
59161;SDS011;44942;48.936;8.260;2023-08-06T10:01:37;0.85;;;0.40;;
59161;SDS011;44942;48.936;8.260;2023-08-06T10:06:38;0.93;;;0.40;;
59161;SDS011;44942;48.936;8.260;2023-08-06T10:11:39;0.32;;;0.32;;
59161;SDS011;44942;48.936;8.260;2023-08-06T10:16:42;1.00;;;0.30;;
59161;SDS011;44942;48.936;8.260;2023-08-06T10:22:07;2.10;;;0.43;;
59161;SDS011;44942;48.936;8.260;2023-08-06T10:27:11;5.65;;;0.55;;
59161;SDS011;44942;48.936;8.260;2023-08-06T10:32:11;2.87;;;0.60;;
59161;SDS011;44942;48.936;8.260;2023-08-06T10:37:15;2.10;;;0.60;;
59161;SDS011;44942;48.936;8.260;2023-08-06T10:42:22;4.03;;;0.80;;
59161;SDS011;44942;48.936;8.260;2023-08-06T10:47:27;2.15;;;0.90;;
59161;SDS011;44942;48.936;8.260;2023-08-06T10:52:30;5.63;;;1.02;;
59161;SDS011;44942;48.936;8.260;2023-08-06T10:57:31;4.53;;;0.90;;
59161;SDS011;44942;48.936;8.260;2023-08-06T11:02:35;2.70;;;1.00;;
59161;SDS011;44942;48.936;8.260;2023-08-06T11:07:36;1.52;;;0.82;;
59161;SDS011;44942;48.936;8.260;2023-08-06T11:12:37;3.83;;;1.13;;
59161;SDS011;44942;48.936;8.260;2023-08-06T11:17:39;4.28;;;0.98;;
59161;SDS011;44942;48.936;8.260;2023-08-06T11:22:41;4.32;;;1.08;;
59161;SDS011;44942;48.936;8.260;2023-08-06T11:27:41;3.63;;;1.08;;
59161;SDS011;44942;48.936;8.260;2023-08-06T11:32:46;4.00;;;1.37;;
59161;SDS011;44942;48.936;8.260;2023-08-06T11:37:47;4.28;;;1.58;;
59161;SDS011;44942;48.936;8.260;2023-08-06T11:42:48;7.72;;;1.50;;
59161;SDS011;44942;48.936;8.260;2023-08-06T11:47:51;3.90;;;1.30;;
59161;SDS011;44942;48.936;8.260;2023-08-06T11:52:59;7.93;;;1.67;;
59161;SDS011;44942;48.936;8.260;2023-08-06T11:58:03;5.15;;;1.42;;
59161;SDS011;44942;48.936;8.260;2023-08-06T12:03:07;4.90;;;1.52;;
59161;SDS011;44942;48.936;8.260;2023-08-06T12:08:08;6.00;;;1.47;;
59161;SDS011;44942;48.936;8.260;2023-08-06T12:13:09;5.82;;;1.60;;
59161;SDS011;44942;48.936;8.260;2023-08-06T12:18:11;1.95;;;1.35;;
59161;SDS011;44942;48.936;8.260;2023-08-06T12:23:12;1.75;;;1.40;;
59161;SDS011;44942;48.936;8.260;2023-08-06T12:28:15;3.35;;;1.30;;
59161;SDS011;44942;48.936;8.260;2023-08-06T12:33:16;3.50;;;1.47;;
59161;SDS011;44942;48.936;8.260;2023-08-06T12:38:16;2.50;;;1.20;;
59161;SDS011;44942;48.936;8.260;2023-08-06T12:43:17;2.90;;;1.23;;
59161;SDS011;44942;48.936;8.260;2023-08-06T12:48:17;2.27;;;1.50;;
59161;SDS011;44942;48.936;8.260;2023-08-06T12:53:19;2.00;;;1.25;;
59161;SDS011;44942;48.936;8.260;2023-08-06T12:58:22;3.22;;;1.60;;
59161;SDS011;44942;48.936;8.260;2023-08-06T13:03:22;4.57;;;1.77;;
59161;SDS011;44942;48.936;8.260;2023-08-06T13:08:23;2.92;;;1.30;;
59161;SDS011;44942;48.936;8.260;2023-08-06T13:13:23;4.03;;;1.60;;
59161;SDS011;44942;48.936;8.260;2023-08-06T13:18:26;61.65;;;38.60;;
59161;SDS011;44942;48.936;8.260;2023-08-06T13:23:29;35.42;;;21.95;;
59161;SDS011;44942;48.936;8.260;2023-08-06T13:28:29;35.60;;;23.50;;
59161;SDS011;44942;48.936;8.260;2023-08-06T13:33:30;44.45;;;24.83;;
59161;SDS011;44942;48.936;8.260;2023-08-06T13:38:30;39.70;;;24.57;;
59161;SDS011;44942;48.936;8.260;2023-08-06T13:43:31;34.13;;;23.07;;
59161;SDS011;44942;48.936;8.260;2023-08-06T13:48:32;32.73;;;19.70;;
59161;SDS011;44942;48.936;8.260;2023-08-06T13:53:32;25.33;;;14.90;;
59161;SDS011;44942;48.936;8.260;2023-08-06T13:58:33;17.15;;;11.70;;
59161;SDS011;44942;48.936;8.260;2023-08-06T14:03:34;21.10;;;10.02;;
59161;SDS011;44942;48.936;8.260;2023-08-06T14:08:34;15.73;;;9.63;;
59161;SDS011;44942;48.936;8.260;2023-08-06T14:13:35;15.40;;;7.32;;
59161;SDS011;44942;48.936;8.260;2023-08-06T14:18:37;11.00;;;6.85;;
59161;SDS011;44942;48.936;8.260;2023-08-06T14:23:38;8.82;;;5.35;;
59161;SDS011;44942;48.936;8.260;2023-08-06T14:28:41;8.50;;;3.53;;
59161;SDS011;44942;48.936;8.260;2023-08-06T14:33:42;4.55;;;3.03;;
59161;SDS011;44942;48.936;8.260;2023-08-06T14:38:42;7.22;;;2.40;;
59161;SDS011;44942;48.936;8.260;2023-08-06T14:43:43;4.80;;;1.90;;
59161;SDS011;44942;48.936;8.260;2023-08-06T14:48:43;3.77;;;2.10;;
59161;SDS011;44942;48.936;8.260;2023-08-06T14:53:44;4.80;;;1.50;;
59161;SDS011;44942;48.936;8.260;2023-08-06T14:58:45;3.08;;;1.40;;
59161;SDS011;44942;48.936;8.260;2023-08-06T15:03:45;1.60;;;1.20;;
59161;SDS011;44942;48.936;8.260;2023-08-06T15:08:46;2.85;;;1.30;;
59161;SDS011;44942;48.936;8.260;2023-08-06T15:13:51;2.30;;;1.20;;
59161;SDS011;44942;48.936;8.260;2023-08-06T15:18:52;2.75;;;1.00;;
59161;SDS011;44942;48.936;8.260;2023-08-06T15:23:53;1.52;;;0.82;;
59161;SDS011;44942;48.936;8.260;2023-08-06T15:33:54;8.53;;;2.50;;
59161;SDS011;44942;48.936;8.260;2023-08-06T15:38:55;8.07;;;3.80;;
59161;SDS011;44942;48.936;8.260;2023-08-06T15:43:55;42.60;;;32.90;;
59161;SDS011;44942;48.936;8.260;2023-08-06T15:48:56;58.87;;;41.57;;
59161;SDS011;44942;48.936;8.260;2023-08-06T15:53:56;36.50;;;30.17;;
59161;SDS011;44942;48.936;8.260;2023-08-06T15:58:57;38.97;;;28.87;;
59161;SDS011;44942;48.936;8.260;2023-08-06T16:03:57;31.97;;;21.50;;
59161;SDS011;44942;48.936;8.260;2023-08-06T16:08:58;26.37;;;20.57;;
59161;SDS011;44942;48.936;8.260;2023-08-06T16:13:59;25.03;;;18.03;;
59161;SDS011;44942;48.936;8.260;2023-08-06T16:19:00;19.83;;;15.07;;
59161;SDS011;44942;48.936;8.260;2023-08-06T16:24:05;18.35;;;13.45;;
59161;SDS011;44942;48.936;8.260;2023-08-06T16:29:06;15.32;;;11.60;;
59161;SDS011;44942;48.936;8.260;2023-08-06T16:34:07;17.67;;;10.18;;
59161;SDS011;44942;48.936;8.260;2023-08-06T16:39:08;14.13;;;8.93;;
59161;SDS011;44942;48.936;8.260;2023-08-06T16:44:08;14.93;;;7.50;;
59161;SDS011;44942;48.936;8.260;2023-08-06T16:49:12;13.25;;;6.03;;
59161;SDS011;44942;48.936;8.260;2023-08-06T16:54:12;8.93;;;5.80;;
59161;SDS011;44942;48.936;8.260;2023-08-06T16:59:13;12.13;;;5.83;;
59161;SDS011;44942;48.936;8.260;2023-08-06T17:04:13;6.75;;;5.10;;
59161;SDS011;44942;48.936;8.260;2023-08-06T17:09:14;11.63;;;5.27;;
59161;SDS011;44942;48.936;8.260;2023-08-06T17:14:14;14.93;;;6.10;;
59161;SDS011;44942;48.936;8.260;2023-08-06T17:19:15;16.57;;;5.47;;
59161;SDS011;44942;48.936;8.260;2023-08-06T17:24:18;13.98;;;5.57;;
59161;SDS011;44942;48.936;8.260;2023-08-06T17:29:19;14.27;;;5.90;;
59161;SDS011;44942;48.936;8.260;2023-08-06T17:34:19;12.23;;;6.00;;
59161;SDS011;44942;48.936;8.260;2023-08-06T17:39:20;15.07;;;6.43;;
59161;SDS011;44942;48.936;8.260;2023-08-06T17:44:21;12.33;;;6.27;;
59161;SDS011;44942;48.936;8.260;2023-08-06T17:49:21;14.50;;;5.77;;
59161;SDS011;44942;48.936;8.260;2023-08-06T17:54:22;11.60;;;5.80;;
59161;SDS011;44942;48.936;8.260;2023-08-06T17:59:24;11.63;;;5.75;;
59161;SDS011;44942;48.936;8.260;2023-08-06T18:04:24;7.50;;;5.13;;
59161;SDS011;44942;48.936;8.260;2023-08-06T18:09:25;11.33;;;5.50;;
59161;SDS011;44942;48.936;8.260;2023-08-06T18:14:25;8.77;;;5.47;;
59161;SDS011;44942;48.936;8.260;2023-08-06T18:19:26;11.13;;;5.85;;
59161;SDS011;44942;48.936;8.260;2023-08-06T18:24:27;9.80;;;5.00;;
59161;SDS011;44942;48.936;8.260;2023-08-06T18:29:28;7.60;;;5.10;;
59161;SDS011;44942;48.936;8.260;2023-08-06T18:34:29;9.32;;;5.40;;
59161;SDS011;44942;48.936;8.260;2023-08-06T18:39:29;7.32;;;4.78;;
59161;SDS011;44942;48.936;8.260;2023-08-06T18:44:30;6.77;;;4.80;;
59161;SDS011;44942;48.936;8.260;2023-08-06T18:49:31;9.03;;;4.90;;
59161;SDS011;44942;48.936;8.260;2023-08-06T18:54:31;16.10;;;4.87;;
59161;SDS011;44942;48.936;8.260;2023-08-06T18:59:32;8.00;;;4.67;;
59161;SDS011;44942;48.936;8.260;2023-08-06T19:04:32;6.60;;;4.90;;
59161;SDS011;44942;48.936;8.260;2023-08-06T19:09:33;9.25;;;4.63;;
59161;SDS011;44942;48.936;8.260;2023-08-06T19:14:34;6.93;;;4.20;;
59161;SDS011;44942;48.936;8.260;2023-08-06T19:19:34;7.60;;;4.37;;
59161;SDS011;44942;48.936;8.260;2023-08-06T19:24:35;7.82;;;4.70;;
59161;SDS011;44942;48.936;8.260;2023-08-06T19:29:36;4.78;;;3.83;;
59161;SDS011;44942;48.936;8.260;2023-08-06T19:34:36;5.65;;;3.35;;
59161;SDS011;44942;48.936;8.260;2023-08-06T19:39:37;5.13;;;3.47;;
59161;SDS011;44942;48.936;8.260;2023-08-06T19:44:38;7.47;;;3.60;;
59161;SDS011;44942;48.936;8.260;2023-08-06T19:49:38;5.17;;;3.13;;
59161;SDS011;44942;48.936;8.260;2023-08-06T19:54:39;9.67;;;3.30;;
59161;SDS011;44942;48.936;8.260;2023-08-06T19:59:39;4.57;;;2.77;;
59161;SDS011;44942;48.936;8.260;2023-08-06T20:04:40;4.83;;;2.57;;
59161;SDS011;44942;48.936;8.260;2023-08-06T20:09:40;2.87;;;2.20;;
59161;SDS011;44942;48.936;8.260;2023-08-06T20:14:41;5.20;;;2.23;;
59161;SDS011;44942;48.936;8.260;2023-08-06T20:19:42;4.35;;;2.00;;
59161;SDS011;44942;48.936;8.260;2023-08-06T20:24:42;4.10;;;2.30;;
59161;SDS011;44942;48.936;8.260;2023-08-06T20:29:43;3.13;;;1.97;;
59161;SDS011;44942;48.936;8.260;2023-08-06T20:34:44;3.33;;;1.80;;
59161;SDS011;44942;48.936;8.260;2023-08-06T20:39:44;3.92;;;2.05;;
59161;SDS011;44942;48.936;8.260;2023-08-06T20:44:45;3.63;;;1.90;;
59161;SDS011;44942;48.936;8.260;2023-08-06T20:49:46;2.95;;;1.60;;
59161;SDS011;44942;48.936;8.260;2023-08-06T20:54:47;2.17;;;1.70;;
59161;SDS011;44942;48.936;8.260;2023-08-06T20:59:47;4.45;;;1.73;;
59161;SDS011;44942;48.936;8.260;2023-08-06T21:04:48;3.17;;;1.70;;
59161;SDS011;44942;48.936;8.260;2023-08-06T21:09:48;2.22;;;1.73;;
59161;SDS011;44942;48.936;8.260;2023-08-06T21:14:49;2.00;;;1.40;;
59161;SDS011;44942;48.936;8.260;2023-08-06T21:19:50;1.98;;;1.50;;
59161;SDS011;44942;48.936;8.260;2023-08-06T21:24:50;1.98;;;1.50;;
59161;SDS011;44942;48.936;8.260;2023-08-06T21:29:51;2.20;;;1.37;;
59161;SDS011;44942;48.936;8.260;2023-08-06T21:34:51;1.70;;;1.43;;
59161;SDS011;44942;48.936;8.260;2023-08-06T21:39:52;2.88;;;1.40;;
59161;SDS011;44942;48.936;8.260;2023-08-06T21:44:53;3.77;;;1.50;;
59161;SDS011;44942;48.936;8.260;2023-08-06T21:49:53;1.90;;;1.60;;
59161;SDS011;44942;48.936;8.260;2023-08-06T21:54:54;2.63;;;1.63;;
59161;SDS011;44942;48.936;8.260;2023-08-06T21:59:55;1.87;;;1.20;;
59161;SDS011;44942;48.936;8.260;2023-08-06T22:04:55;1.47;;;1.20;;
59161;SDS011;44942;48.936;8.260;2023-08-06T22:09:56;1.37;;;1.10;;
59161;SDS011;44942;48.936;8.260;2023-08-06T22:14:56;1.93;;;1.30;;
59161;SDS011;44942;48.936;8.260;2023-08-06T22:19:57;1.93;;;1.20;;
59161;SDS011;44942;48.936;8.260;2023-08-06T22:24:58;1.70;;;1.20;;
59161;SDS011;44942;48.936;8.260;2023-08-06T22:29:58;1.70;;;1.20;;
59161;SDS011;44942;48.936;8.260;2023-08-06T22:34:59;2.42;;;1.30;;
59161;SDS011;44942;48.936;8.260;2023-08-06T22:39:59;2.03;;;1.10;;
59161;SDS011;44942;48.936;8.260;2023-08-06T22:45:00;2.63;;;1.10;;
59161;SDS011;44942;48.936;8.260;2023-08-06T22:50:01;3.92;;;1.17;;
59161;SDS011;44942;48.936;8.260;2023-08-06T22:55:03;2.22;;;1.20;;
59161;SDS011;44942;48.936;8.260;2023-08-06T23:00:05;1.60;;;1.25;;
59161;SDS011;44942;48.936;8.260;2023-08-06T23:05:06;2.13;;;1.20;;
59161;SDS011;44942;48.936;8.260;2023-08-06T23:10:07;2.65;;;1.15;;
59161;SDS011;44942;48.936;8.260;2023-08-06T23:15:08;1.92;;;1.23;;
59161;SDS011;44942;48.936;8.260;2023-08-06T23:20:09;1.23;;;1.00;;
59161;SDS011;44942;48.936;8.260;2023-08-06T23:25:09;1.60;;;1.13;;
59161;SDS011;44942;48.936;8.260;2023-08-06T23:30:10;2.43;;;1.30;;
59161;SDS011;44942;48.936;8.260;2023-08-06T23:35:11;1.00;;;0.90;;
59161;SDS011;44942;48.936;8.260;2023-08-06T23:40:12;2.05;;;1.20;;
59161;SDS011;44942;48.936;8.260;2023-08-06T23:45:12;2.50;;;1.20;;
59161;SDS011;44942;48.936;8.260;2023-08-06T23:50:13;1.53;;;1.10;;
59161;SDS011;44942;48.936;8.260;2023-08-06T23:55:15;2.85;;;1.08;;
